createdAt,value
2023-02-06T00:01:00.719Z,84.60
2023-02-06T00:03:28.975Z,84.70
2023-02-06T00:05:59.430Z,84.70
2023-02-06T00:08:28.230Z,84.50
2023-02-06T00:10:56.559Z,85.40
2023-02-06T00:13:24.695Z,85.30
2023-02-06T00:15:52.752Z,85.50
2023-02-06T00:18:22.176Z,85.10
2023-02-06T00:20:50.227Z,85.00
2023-02-06T00:23:18.329Z,85.00
2023-02-06T00:25:46.753Z,85.20
2023-02-06T00:28:15.097Z,84.70
2023-02-06T00:30:46.579Z,84.90
2023-02-06T00:33:14.875Z,85.00
2023-02-06T00:35:44.250Z,84.80
2023-02-06T00:38:12.691Z,85.00
2023-02-06T00:40:40.823Z,85.00
2023-02-06T00:43:20.374Z,85.00
2023-02-06T00:45:52.465Z,85.10
2023-02-06T00:48:20.619Z,84.90
2023-02-06T00:50:51.155Z,85.00
2023-02-06T00:53:19.783Z,84.80
2023-02-06T00:55:47.883Z,84.90
2023-02-06T00:58:16.137Z,84.90
2023-02-06T01:00:44.851Z,85.20
2023-02-06T01:03:13.125Z,85.30
2023-02-06T01:05:41.297Z,85.20
2023-02-06T01:08:10.872Z,85.20
2023-02-06T01:10:41.785Z,85.40
2023-02-06T01:13:09.982Z,85.10
2023-02-06T01:15:38.088Z,85.00
2023-02-06T01:18:06.435Z,84.60
2023-02-06T01:20:34.603Z,85.00
2023-02-06T01:23:04.807Z,84.90
2023-02-06T01:25:34.651Z,85.10
2023-02-06T01:28:03.101Z,85.30
2023-02-06T01:30:31.508Z,85.40
2023-02-06T01:32:59.729Z,85.30
2023-02-06T01:35:29.623Z,85.10
2023-02-06T01:37:57.662Z,85.10
2023-02-06T01:40:25.841Z,85.30
2023-02-06T01:42:55.254Z,85.30
2023-02-06T01:45:45.598Z,85.40
2023-02-06T01:48:19.913Z,85.40
2023-02-06T01:50:51.754Z,85.20
2023-02-06T01:53:22.318Z,85.30
2023-02-06T01:55:52.432Z,85.20
2023-02-06T01:58:29.098Z,85.10
2023-02-06T02:01:00.369Z,85.00
2023-02-06T02:03:29.830Z,85.00
2023-02-06T02:06:02.421Z,85.00
2023-02-06T02:08:34.799Z,84.80
2023-02-06T02:11:04.472Z,84.60
2023-02-06T02:13:34.376Z,84.80
2023-02-06T02:16:10.607Z,84.50
2023-02-06T02:18:57.500Z,84.40
2023-02-06T02:21:58.077Z,84.90
2023-02-06T02:24:40.311Z,84.80
2023-02-06T02:27:24.451Z,84.90
2023-02-06T02:30:17.654Z,85.10
2023-02-06T02:33:13.990Z,85.10
2023-02-06T02:35:51.961Z,85.20
2023-02-06T02:38:28.612Z,85.20
2023-02-06T02:41:04.258Z,85.30
2023-02-06T02:43:38.276Z,85.40
2023-02-06T02:46:15.545Z,85.10
2023-02-06T02:48:46.796Z,85.30
2023-02-06T02:51:17.407Z,85.60
2023-02-06T02:53:45.550Z,85.70
2023-02-06T02:56:18.661Z,85.50
2023-02-06T02:58:50.313Z,85.70
2023-02-06T03:01:27.900Z,85.50
2023-02-06T03:03:59.600Z,85.60
2023-02-06T03:06:52.757Z,85.60
2023-02-06T03:09:32.751Z,85.70
2023-02-06T03:12:11.417Z,85.70
2023-02-06T03:14:46.692Z,85.50
2023-02-06T03:17:20.493Z,85.50
2023-02-06T03:19:54.227Z,85.30
2023-02-06T03:22:25.615Z,85.50
2023-02-06T03:24:55.041Z,85.40
2023-02-06T03:27:32.092Z,86.30
2023-02-06T03:30:01.925Z,86.10
2023-02-06T03:32:35.521Z,86.30
2023-02-06T03:35:09.001Z,85.90
2023-02-06T03:37:39.105Z,86.00
2023-02-06T03:40:09.540Z,86.00
2023-02-06T03:42:40.665Z,85.60
2023-02-06T03:45:15.420Z,85.90
2023-02-06T03:47:44.893Z,85.80
2023-02-06T03:50:14.823Z,85.70
2023-02-06T03:52:48.259Z,85.90
2023-02-06T03:55:19.394Z,85.70
2023-02-06T03:57:51.378Z,86.00
2023-02-06T04:00:19.512Z,85.80
2023-02-06T04:02:49.081Z,85.80
2023-02-06T04:05:19.163Z,85.70
2023-02-06T04:07:48.524Z,85.70
2023-02-06T04:10:16.859Z,85.50
2023-02-06T04:12:44.952Z,85.30
2023-02-06T04:15:12.988Z,85.80
2023-02-06T04:17:53.902Z,85.60
2023-02-06T04:20:25.865Z,85.50
2023-02-06T04:22:55.303Z,85.40
2023-02-06T04:25:23.308Z,85.40
2023-02-06T04:27:51.456Z,85.50
2023-02-06T04:30:19.722Z,85.60
2023-02-06T04:32:47.940Z,85.60
2023-02-06T04:35:16.010Z,85.50
2023-02-06T04:37:44.014Z,85.40
2023-02-06T04:40:14.093Z,85.40
2023-02-06T04:42:42.110Z,85.50
2023-02-06T04:45:10.903Z,86.00
2023-02-06T04:47:39.295Z,86.00
2023-02-06T04:50:08.138Z,86.30
2023-02-06T04:52:38.545Z,86.10
2023-02-06T04:55:07.199Z,86.00
2023-02-06T04:57:36.606Z,86.20
2023-02-06T05:00:05.343Z,86.30
2023-02-06T05:02:37.512Z,86.20
2023-02-06T05:05:06.810Z,86.10
2023-02-06T05:07:35.050Z,86.00
2023-02-06T05:10:03.531Z,86.00
2023-02-06T05:12:31.657Z,85.90
2023-02-06T05:15:01.056Z,85.80
2023-02-06T05:17:29.084Z,86.10
2023-02-06T05:19:58.369Z,86.00
2023-02-06T05:22:26.958Z,85.80
2023-02-06T05:24:55.074Z,85.90
2023-02-06T05:27:23.243Z,86.10
2023-02-06T05:29:51.304Z,86.00
2023-02-06T05:32:20.786Z,86.00
2023-02-06T05:34:48.816Z,86.10
2023-02-06T05:37:16.922Z,86.10
2023-02-06T05:39:44.994Z,86.30
2023-02-06T05:42:12.955Z,86.30
2023-02-06T05:44:41.053Z,86.50
2023-02-06T05:47:09.072Z,86.50
2023-02-06T05:49:38.696Z,86.40
2023-02-06T05:52:06.708Z,86.00
2023-02-06T05:54:34.855Z,86.30
2023-02-06T05:57:03.415Z,86.60
2023-02-06T05:59:31.875Z,86.80
2023-02-06T06:02:00.129Z,86.80
2023-02-06T06:04:28.367Z,86.90
2023-02-06T06:06:57.808Z,87.00
2023-02-06T06:09:25.987Z,87.10
2023-02-06T06:11:54.331Z,87.10
2023-02-06T06:14:22.458Z,86.80
2023-02-06T06:16:50.602Z,86.50
2023-02-06T06:19:18.838Z,86.30
2023-02-06T06:21:46.905Z,86.20
2023-02-06T06:24:16.368Z,86.10
2023-02-06T06:26:44.610Z,86.10
2023-02-06T06:29:12.846Z,86.30
2023-02-06T06:31:41.109Z,86.00
2023-02-06T06:34:09.216Z,85.90
2023-02-06T06:36:37.298Z,85.60
2023-02-06T06:39:05.453Z,85.60
2023-02-06T06:41:34.840Z,85.90
2023-02-06T06:44:02.933Z,85.80
2023-02-06T06:46:31.030Z,85.80
2023-02-06T06:48:59.185Z,85.70
2023-02-06T06:51:29.311Z,85.50
2023-02-06T06:53:57.377Z,85.80
2023-02-06T06:56:26.885Z,85.80
2023-02-06T06:58:56.453Z,85.70
2023-02-06T07:01:24.745Z,85.60
2023-02-06T07:03:52.859Z,85.70
2023-02-06T07:06:21.000Z,85.50
2023-02-06T07:08:49.173Z,85.30
2023-02-06T07:11:18.504Z,85.40
2023-02-06T07:13:47.052Z,85.60
2023-02-06T07:16:16.580Z,85.60
2023-02-06T07:18:44.673Z,85.30
2023-02-06T07:21:14.165Z,85.30
2023-02-06T07:23:42.271Z,85.50
2023-02-06T07:26:10.359Z,85.50
2023-02-06T07:28:38.525Z,85.40
2023-02-06T07:31:08.510Z,85.40
2023-02-06T07:33:38.041Z,85.30
2023-02-06T07:36:06.482Z,85.10
2023-02-06T07:38:34.493Z,85.30
2023-02-06T07:41:03.353Z,85.10
2023-02-06T07:43:32.063Z,84.90
2023-02-06T07:46:01.902Z,85.00
2023-02-06T07:48:30.653Z,85.00
2023-02-06T07:51:06.183Z,84.40
2023-02-06T07:53:34.469Z,84.40
2023-02-06T07:56:02.833Z,84.20
2023-02-06T07:58:30.860Z,84.10
2023-02-06T08:01:00.652Z,84.10
2023-02-06T08:03:28.727Z,84.00
2023-02-06T08:05:56.851Z,84.00
2023-02-06T08:08:26.850Z,83.90
2023-02-06T08:10:54.958Z,83.80
2023-02-06T08:13:23.031Z,83.30
2023-02-06T08:15:51.202Z,83.20
2023-02-06T08:18:19.261Z,83.40
2023-02-06T08:20:47.346Z,83.00
2023-02-06T08:23:15.427Z,82.90
2023-02-06T08:25:44.816Z,83.00
2023-02-06T08:28:14.996Z,83.00
2023-02-06T08:30:43.208Z,83.00
2023-02-06T08:33:11.278Z,82.70
2023-02-06T08:35:39.336Z,82.60
2023-02-06T08:38:07.379Z,82.50
2023-02-06T08:40:35.416Z,82.60
2023-02-06T08:43:04.794Z,82.40
2023-02-06T08:45:32.940Z,82.20
2023-02-06T08:48:01.013Z,82.10
2023-02-06T08:50:29.048Z,82.30
2023-02-06T08:52:57.156Z,82.10
2023-02-06T08:55:25.491Z,81.90
2023-02-06T08:57:53.567Z,81.90
2023-02-06T09:00:23.575Z,82.00
2023-02-06T09:02:53.355Z,81.90
2023-02-06T09:05:21.669Z,81.70
2023-02-06T09:07:50.665Z,81.70
2023-02-06T09:10:27.182Z,81.40
2023-02-06T09:12:56.066Z,81.20
2023-02-06T09:15:25.487Z,81.10
2023-02-06T09:17:53.691Z,80.90
2023-02-06T09:20:22.560Z,81.00
2023-02-06T09:22:50.674Z,81.40
2023-02-06T09:25:18.790Z,80.90
2023-02-06T09:27:47.238Z,81.10
2023-02-06T09:30:16.031Z,80.70
2023-02-06T09:32:45.670Z,80.70
2023-02-06T09:35:13.722Z,81.10
2023-02-06T09:37:41.886Z,80.30
2023-02-06T09:40:13.365Z,80.10
2023-02-06T09:42:42.527Z,80.10
2023-02-06T09:45:15.334Z,79.90
2023-02-06T09:47:47.684Z,79.50
2023-02-06T09:50:25.214Z,79.10
2023-02-06T09:53:03.991Z,79.00
2023-02-06T09:55:39.788Z,78.10
2023-02-06T09:58:20.291Z,77.90
2023-02-06T10:00:53.022Z,78.30
2023-02-06T10:03:44.980Z,78.20
2023-02-06T10:06:19.352Z,78.10
2023-02-06T10:08:54.882Z,77.40
2023-02-06T10:11:32.383Z,77.70
2023-02-06T10:14:05.010Z,77.70
2023-02-06T10:16:39.584Z,78.00
2023-02-06T10:19:14.545Z,77.70
2023-02-06T10:21:47.300Z,77.90
2023-02-06T10:24:24.878Z,77.80
2023-02-06T10:26:54.580Z,77.40
2023-02-06T10:29:27.375Z,77.10
2023-02-06T10:32:05.328Z,77.20
2023-02-06T10:34:48.380Z,77.40
2023-02-06T10:37:34.561Z,77.60
2023-02-06T10:40:26.429Z,77.40
2023-02-06T10:42:59.133Z,77.20
2023-02-06T10:45:39.908Z,77.00
2023-02-06T10:48:18.879Z,76.70
2023-02-06T10:50:51.903Z,76.40
2023-02-06T10:53:24.365Z,76.10
2023-02-06T10:55:56.505Z,76.20
2023-02-06T10:58:28.715Z,75.90
2023-02-06T11:00:58.768Z,76.10
2023-02-06T11:03:31.900Z,76.40
2023-02-06T11:06:03.844Z,76.90
2023-02-06T11:08:34.600Z,76.50
2023-02-06T11:11:18.745Z,75.80
2023-02-06T11:13:49.778Z,75.80
2023-02-06T11:16:23.876Z,76.10
2023-02-06T11:18:53.399Z,76.40
2023-02-06T11:21:51.603Z,76.60
2023-02-06T11:24:22.617Z,76.30
2023-02-06T11:26:55.671Z,76.40
2023-02-06T11:29:27.348Z,77.00
2023-02-06T11:31:58.595Z,77.20
2023-02-06T11:34:32.237Z,77.20
2023-02-06T11:37:03.917Z,77.70
2023-02-06T11:39:34.253Z,77.80
2023-02-06T11:42:05.535Z,78.30
2023-02-06T11:44:39.017Z,78.50
2023-02-06T11:47:30.310Z,78.70
2023-02-06T11:49:58.830Z,78.40
2023-02-06T11:52:34.414Z,78.40
2023-02-06T11:55:02.948Z,78.20
2023-02-06T11:57:33.627Z,78.20
2023-02-06T12:00:20.229Z,77.90
2023-02-06T12:03:00.380Z,77.90
2023-02-06T12:05:34.007Z,78.20
2023-02-06T12:08:07.926Z,78.20
2023-02-06T12:10:40.569Z,77.90
2023-02-06T12:13:16.688Z,78.30
2023-02-06T12:15:48.206Z,78.20
2023-02-06T12:18:21.649Z,78.60
2023-02-06T12:20:55.668Z,78.80
2023-02-06T12:23:29.588Z,78.80
2023-02-06T12:26:01.681Z,78.50
2023-02-06T12:28:36.962Z,78.60
2023-02-06T12:31:11.160Z,78.60
2023-02-06T12:33:45.645Z,78.40
2023-02-06T12:36:17.519Z,78.70
2023-02-06T12:38:51.702Z,78.80
2023-02-06T12:41:48.414Z,79.10
2023-02-06T12:44:27.986Z,80.00
2023-02-06T12:46:59.676Z,80.40
2023-02-06T12:49:32.375Z,80.90
2023-02-06T12:52:07.030Z,81.10
2023-02-06T12:54:40.651Z,81.30
2023-02-06T12:57:16.904Z,81.50
2023-02-06T13:00:14.014Z,81.70
2023-02-06T13:03:03.583Z,81.90
2023-02-06T13:05:37.088Z,81.40
2023-02-06T13:08:08.877Z,81.60
2023-02-06T13:10:39.183Z,81.90
2023-02-06T13:13:07.642Z,82.00
2023-02-06T13:15:39.452Z,82.20
2023-02-06T13:18:44.574Z,82.20
2023-02-06T13:21:16.289Z,82.10
2023-02-06T13:23:51.238Z,81.80
2023-02-06T13:26:40.681Z,81.80
2023-02-06T13:29:25.228Z,81.10
2023-02-06T13:32:41.941Z,80.90
2023-02-06T13:35:24.982Z,81.40
2023-02-06T13:38:11.661Z,81.50
2023-02-06T13:40:40.081Z,81.50
2023-02-06T13:43:18.564Z,81.50
2023-02-06T13:45:50.566Z,81.40
2023-02-06T13:48:51.048Z,81.20
2023-02-06T13:51:46.455Z,81.60
2023-02-06T13:54:52.387Z,82.10
2023-02-06T13:57:52.443Z,82.10
2023-02-06T14:00:24.875Z,82.40
2023-02-06T14:02:56.311Z,82.50
2023-02-06T14:05:31.145Z,82.00
2023-02-06T14:08:07.172Z,82.10
2023-02-06T14:11:09.131Z,81.80
2023-02-06T14:13:50.657Z,82.10
2023-02-06T14:16:38.233Z,82.40
2023-02-06T14:19:13.569Z,82.30
2023-02-06T14:21:51.132Z,82.20
2023-02-06T14:24:50.990Z,82.30
2023-02-06T14:27:33.060Z,82.60
2023-02-06T14:30:08.278Z,83.00
2023-02-06T14:32:45.531Z,82.50
2023-02-06T14:35:35.748Z,82.60
2023-02-06T14:38:31.515Z,82.90
2023-02-06T14:41:01.890Z,83.20
2023-02-06T14:43:33.267Z,83.70
2023-02-06T14:46:08.104Z,83.40
2023-02-06T14:48:40.472Z,83.30
2023-02-06T14:51:18.936Z,83.90
2023-02-06T14:53:54.001Z,84.00
2023-02-06T14:56:27.692Z,84.60
2023-02-06T14:58:56.848Z,84.80
2023-02-06T15:01:27.759Z,85.00
2023-02-06T15:04:12.341Z,84.80
2023-02-06T15:06:42.755Z,84.60
2023-02-06T15:09:25.034Z,84.60
2023-02-06T15:11:54.791Z,84.10
2023-02-06T15:14:25.505Z,84.30
2023-02-06T15:16:56.761Z,84.20
2023-02-06T15:19:33.724Z,83.90
2023-02-06T15:22:15.438Z,84.30
2023-02-06T15:24:54.411Z,84.50
2023-02-06T15:27:28.741Z,85.00
2023-02-06T15:29:57.465Z,84.90
2023-02-06T15:32:29.669Z,84.60
2023-02-06T15:35:02.070Z,84.70
2023-02-06T15:37:32.829Z,85.00
2023-02-06T15:40:06.434Z,84.80
2023-02-06T15:42:34.737Z,85.00
2023-02-06T15:45:03.050Z,85.00
2023-02-06T15:47:32.033Z,84.70
2023-02-06T15:50:01.516Z,84.70
2023-02-06T15:52:36.179Z,84.50
2023-02-06T15:55:05.565Z,84.50
2023-02-06T15:57:36.409Z,84.40
2023-02-06T16:00:09.961Z,84.10
2023-02-06T16:02:41.700Z,84.00
2023-02-06T16:05:24.824Z,83.70
2023-02-06T16:07:53.243Z,84.00
2023-02-06T16:10:24.551Z,83.80
2023-02-06T16:12:53.520Z,84.10
2023-02-06T16:15:28.948Z,84.10
2023-02-06T16:17:58.314Z,84.10
2023-02-06T16:20:33.960Z,84.00
2023-02-06T16:23:19.332Z,84.10
2023-02-06T16:25:49.434Z,84.20
2023-02-06T16:28:23.119Z,84.50
2023-02-06T16:30:56.847Z,84.50
2023-02-06T16:33:33.387Z,84.30
2023-02-06T16:36:03.521Z,84.30
2023-02-06T16:38:32.088Z,84.20
2023-02-06T16:41:00.583Z,84.20
2023-02-06T16:43:31.642Z,84.30
2023-02-06T16:46:02.255Z,84.50
2023-02-06T16:48:30.518Z,84.70
2023-02-06T16:51:00.127Z,84.30
2023-02-06T16:53:30.117Z,84.80
2023-02-06T16:55:58.314Z,84.70
2023-02-06T16:58:28.439Z,84.70
2023-02-06T17:00:56.628Z,84.60
2023-02-06T17:03:25.388Z,84.60
2023-02-06T17:05:54.639Z,84.50
2023-02-06T17:08:25.524Z,84.20
2023-02-06T17:10:54.933Z,84.10
2023-02-06T17:13:24.778Z,84.50
2023-02-06T17:15:53.374Z,84.10
2023-02-06T17:18:23.108Z,84.50
2023-02-06T17:20:52.907Z,84.80
2023-02-06T17:23:21.622Z,84.80
2023-02-06T17:25:50.842Z,84.70
2023-02-06T17:28:21.452Z,84.30
2023-02-06T17:30:50.801Z,84.20
2023-02-06T17:33:19.141Z,83.90
2023-02-06T17:35:49.222Z,84.30
2023-02-06T17:38:17.307Z,84.50
2023-02-06T17:40:45.611Z,84.10
2023-02-06T17:43:13.764Z,83.90
2023-02-06T17:45:43.493Z,83.80
2023-02-06T17:48:11.678Z,83.80
2023-02-06T17:50:41.427Z,84.10
2023-02-06T17:53:12.542Z,83.50
2023-02-06T17:55:41.081Z,83.30
2023-02-06T17:58:09.274Z,83.40
2023-02-06T18:00:37.845Z,83.00
2023-02-06T18:03:07.589Z,83.10
2023-02-06T18:05:35.999Z,82.60
2023-02-06T18:08:04.194Z,82.60
2023-02-06T18:10:32.234Z,82.90
2023-02-06T18:13:00.252Z,82.50
2023-02-06T18:15:30.373Z,82.50
2023-02-06T18:17:59.971Z,82.40
2023-02-06T18:20:29.417Z,81.90
2023-02-06T18:22:57.673Z,81.70
2023-02-06T18:25:25.819Z,82.10
2023-02-06T18:27:53.924Z,81.90
2023-02-06T18:30:22.217Z,81.90
2023-02-06T18:32:50.369Z,81.80
2023-02-06T18:35:19.848Z,81.60
2023-02-06T18:37:50.041Z,81.90
2023-02-06T18:40:18.279Z,81.40
2023-02-06T18:42:55.136Z,81.70
2023-02-06T18:45:24.826Z,81.70
2023-02-06T18:47:53.190Z,81.50
2023-02-06T18:50:22.226Z,81.40
2023-02-06T18:52:52.098Z,81.40
2023-02-06T18:55:20.750Z,81.50
2023-02-06T18:57:49.162Z,81.50
2023-02-06T19:00:19.032Z,81.50
2023-02-06T19:02:47.101Z,81.50
2023-02-06T19:05:15.597Z,81.50
2023-02-06T19:07:43.682Z,81.40
2023-02-06T19:10:16.240Z,81.20
2023-02-06T19:12:44.464Z,80.80
2023-02-06T19:15:14.383Z,81.10
2023-02-06T19:17:42.706Z,81.20
2023-02-06T19:20:12.403Z,81.10
2023-02-06T19:22:40.555Z,81.20
2023-02-06T19:25:12.597Z,80.60
2023-02-06T19:27:43.710Z,80.60
2023-02-06T19:30:13.561Z,80.60
2023-02-06T19:32:41.738Z,80.70
2023-02-06T19:35:11.909Z,80.80
2023-02-06T19:37:40.153Z,80.90
2023-02-06T19:40:08.859Z,80.80
2023-02-06T19:42:37.060Z,80.90
2023-02-06T19:45:07.309Z,80.90
2023-02-06T19:47:35.955Z,81.10
2023-02-06T19:50:03.998Z,81.20
2023-02-06T19:52:32.499Z,81.20
2023-02-06T19:55:00.544Z,81.30
2023-02-06T19:57:28.586Z,81.40
2023-02-06T19:59:56.864Z,81.40
2023-02-06T20:02:26.314Z,81.60
2023-02-06T20:04:54.458Z,81.40
2023-02-06T20:07:22.607Z,81.40
2023-02-06T20:09:51.147Z,81.50
2023-02-06T20:12:19.172Z,81.50
2023-02-06T20:14:47.290Z,81.40
2023-02-06T20:17:17.311Z,81.50
2023-02-06T20:19:46.770Z,81.60
2023-02-06T20:22:14.844Z,81.90
2023-02-06T20:24:42.965Z,81.70
2023-02-06T20:27:12.666Z,81.90
2023-02-06T20:29:42.726Z,82.10
2023-02-06T20:32:12.051Z,82.10
2023-02-06T20:34:40.222Z,81.90
2023-02-06T20:37:09.744Z,82.20
2023-02-06T20:39:38.142Z,82.40
2023-02-06T20:42:06.317Z,82.50
2023-02-06T20:44:34.450Z,82.60
2023-02-06T20:47:02.723Z,82.70
2023-02-06T20:49:31.518Z,82.60
2023-02-06T20:51:59.768Z,82.40
2023-02-06T20:54:30.820Z,82.50
2023-02-06T20:57:00.329Z,82.40
2023-02-06T20:59:28.391Z,82.40
2023-02-06T21:01:56.605Z,81.90
2023-02-06T21:04:24.902Z,81.90
2023-02-06T21:06:52.909Z,81.90
2023-02-06T21:09:21.010Z,81.40
2023-02-06T21:11:51.091Z,81.60
2023-02-06T21:14:20.246Z,81.50
2023-02-06T21:16:48.570Z,81.50
2023-02-06T21:19:18.980Z,81.40
2023-02-06T21:21:47.132Z,81.60
2023-02-06T21:24:16.246Z,81.40
2023-02-06T21:26:45.099Z,81.60
2023-02-06T21:29:16.018Z,81.70
2023-02-06T21:31:44.695Z,81.90
2023-02-06T21:34:14.840Z,81.90
2023-02-06T21:36:43.289Z,81.90
2023-02-06T21:39:12.122Z,82.00
2023-02-06T21:41:40.247Z,81.90
2023-02-06T21:44:08.294Z,81.90
2023-02-06T21:46:38.005Z,81.90
2023-02-06T21:49:09.177Z,81.70
2023-02-06T21:51:37.212Z,82.00
2023-02-06T21:54:05.526Z,82.10
2023-02-06T21:56:33.590Z,82.20
2023-02-06T21:59:01.650Z,82.30
2023-02-06T22:01:33.150Z,82.40
2023-02-06T22:04:03.749Z,82.40
2023-02-06T22:06:32.079Z,82.30
2023-02-06T22:09:07.555Z,82.50
2023-02-06T22:11:36.691Z,82.50
2023-02-06T22:14:06.633Z,82.40
2023-02-06T22:16:35.106Z,82.20
2023-02-06T22:19:04.907Z,82.10
2023-02-06T22:21:34.157Z,82.00
2023-02-06T22:24:07.381Z,81.90
2023-02-06T22:26:38.585Z,81.90
2023-02-06T22:29:08.366Z,81.90
2023-02-06T22:31:37.453Z,81.90
2023-02-06T22:34:11.758Z,81.80
2023-02-06T22:36:40.195Z,81.70
2023-02-06T22:39:12.449Z,81.60
2023-02-06T22:41:42.136Z,81.80
2023-02-06T22:44:11.577Z,81.80
2023-02-06T22:46:40.789Z,81.90
2023-02-06T22:49:11.399Z,81.80
2023-02-06T22:51:40.955Z,81.80
2023-02-06T22:54:10.347Z,81.90
2023-02-06T22:56:41.039Z,81.90
2023-02-06T22:59:11.063Z,81.90
2023-02-06T23:01:42.129Z,81.80
2023-02-06T23:04:15.257Z,81.60
2023-02-06T23:06:44.466Z,81.60
2023-02-06T23:09:15.902Z,81.50
2023-02-06T23:11:44.722Z,81.60
2023-02-06T23:14:13.872Z,81.60
2023-02-06T23:16:42.590Z,81.80
2023-02-06T23:19:13.390Z,82.10
2023-02-06T23:21:43.233Z,82.00
2023-02-06T23:24:12.285Z,82.00
2023-02-06T23:26:42.823Z,81.90
2023-02-06T23:29:15.689Z,81.60
2023-02-06T23:31:44.191Z,81.40
2023-02-06T23:34:13.762Z,81.40
2023-02-06T23:36:42.043Z,81.20
2023-02-06T23:39:11.714Z,81.00
2023-02-06T23:41:39.793Z,80.90
2023-02-06T23:44:09.572Z,80.70
2023-02-06T23:46:39.789Z,80.70
2023-02-06T23:49:20.916Z,80.70
2023-02-06T23:51:49.047Z,80.70
2023-02-06T23:54:17.291Z,80.70
2023-02-06T23:56:45.439Z,80.70
2023-02-06T23:59:14.301Z,80.60
